sensor_id;sensor_type;location;lat;lon;timestamp;pressure;altitude;pressure_sealevel;temperature
77385;BMP280;66444;49.680;18.538;2023-12-07T00:01:57;97108.09961636557;;;1.6059555255342275
77385;BMP280;66444;49.680;18.538;2023-12-07T00:07:05;97113.34062764699;;;1.6059555255342275
77385;BMP280;66444;49.680;18.538;2023-12-07T00:12:14;97111.85740552055;;;1.544786849571392
77385;BMP280;66444;49.680;18.538;2023-12-07T00:17:22;97114.47765017451;;;1.544786849571392
77385;BMP280;66444;49.680;18.538;2023-12-07T00:22:31;97118.72809468354;;;1.5040072666015476
77385;BMP280;66444;49.680;18.538;2023-12-07T00:27:39;97121.41951675914;;;1.453032264020294
77385;BMP280;66444;49.680;18.538;2023-12-07T00:32:47;97124.10939820934;;;1.4020566793624312
77385;BMP280;66444;49.680;18.538;2023-12-07T00:37:56;97119.93191876607;;;1.3918614925816655
77385;BMP280;66444;49.680;18.538;2023-12-07T00:43:04;97123.11683567187;;;1.3612757925409824
77385;BMP280;66444;49.680;18.538;2023-12-07T00:48:12;97123.61318768442;;;1.3816662825178354
77385;BMP280;66444;49.680;18.538;2023-12-07T00:53:21;97130.47848060224;;;1.3408852094318717
77385;BMP280;66444;49.680;18.538;2023-12-07T00:58:30;97135.93190821643;;;1.3765686687547714
77385;BMP280;66444;49.680;18.538;2023-12-07T01:03:38;97135.1528401454;;;1.3714710491709412
77385;BMP280;66444;49.680;18.538;2023-12-07T01:08:46;97128.78311039519;;;1.4326421000063418
77385;BMP280;66444;49.680;18.538;2023-12-07T01:13:55;97142.9436255597;;;1.4224469830747695
77385;BMP280;66444;49.680;18.538;2023-12-07T01:19:03;97139.8272834767;;;1.4020566793624312
77385;BMP280;66444;49.680;18.538;2023-12-07T01:24:11;97136.14605476295;;;1.4122518428601325
77385;BMP280;66444;49.680;18.538;2023-12-07T01:29:20;97140.60636550849;;;1.4071542640216648
77385;BMP280;66444;49.680;18.538;2023-12-07T01:34:28;97140.32388155209;;;1.4224469830747695
77385;BMP280;66444;49.680;18.538;2023-12-07T01:39:37;97146.06000485134;;;1.44283719365485
77385;BMP280;66444;49.680;18.538;2023-12-07T01:44:45;97139.75857607527;;;1.453032264020294
77385;BMP280;66444;49.680;18.538;2023-12-07T01:49:54;97142.9436255597;;;1.4224469830747695
77385;BMP280;66444;49.680;18.538;2023-12-07T01:55:02;97140.39188254833;;;1.3714710491709412
77385;BMP280;66444;49.680;18.538;2023-12-07T02:00:14;97145.26477992571;;;1.249126432929188
77385;BMP280;66444;49.680;18.538;2023-12-07T02:05:23;97150.4382694134;;;1.3001037638168782
77385;BMP280;66444;49.680;18.538;2023-12-07T02:10:33;97156.10906657651;;;1.3714710491709412
77385;BMP280;66444;49.680;18.538;2023-12-07T02:15:41;97148.53239807834;;;1.3561781554948538
77385;BMP280;66444;49.680;18.538;2023-12-07T02:20:53;97151.43362053545;;;1.3408852094318717
77385;BMP280;66444;49.680;18.538;2023-12-07T02:26:43;97147.60257032591;;;1.264419693313539
77385;BMP280;66444;49.680;18.538;2023-12-07T02:31:51;97156.23912562542;;;1.2695174351334573
77385;BMP280;66444;49.680;18.538;2023-12-07T02:37:00;97158.64065551278;;;1.2338331201579422
77385;BMP280;66444;49.680;18.538;2023-12-07T02:42:11;97161.0413704118;;;1.1981485199648887
77385;BMP280;66444;49.680;18.538;2023-12-07T02:47:20;97173.19583308462;;;1.106386809796095
77385;BMP280;66444;49.680;18.538;2023-12-07T02:52:29;97173.19583308462;;;1.106386809796095
77385;BMP280;66444;49.680;18.538;2023-12-07T02:57:38;97181.330368532;;;1.0910930080804975
77385;BMP280;66444;49.680;18.538;2023-12-07T03:02:47;97183.22616165895;;;1.0350152869243174
77385;BMP280;66444;49.680;18.538;2023-12-07T03:07:55;97184.34044795921;;;0.9738387878518552
77385;BMP280;66444;49.680;18.538;2023-12-07T03:13:10;97176.87420498315;;;0.8565814884379506
77385;BMP280;66444;49.680;18.538;2023-12-07T03:18:18;97176.64953116371;;;0.8208938730880618
77385;BMP280;66444;49.680;18.538;2023-12-07T03:23:27;97176.64953116371;;;0.8208938730880618
77385;BMP280;66444;49.680;18.538;2023-12-07T03:28:35;97183.89314651732;;;0.9024651462212205
77385;BMP280;66444;49.680;18.538;2023-12-07T03:33:44;97190.68812318577;;;0.9126614505890757
77385;BMP280;66444;49.680;18.538;2023-12-07T03:38:53;97196.63004979212;;;0.7291244096588343
77385;BMP280;66444;49.680;18.538;2023-12-07T03:44:07;97198.8828347288;;;0.5557769442908466
77385;BMP280;66444;49.680;18.538;2023-12-07T03:49:16;97208.88465585258;;;0.48439662042073905
77385;BMP280;66444;49.680;18.538;2023-12-07T03:54:24;97211.54227790372;;;0.4334099763073027
77385;BMP280;66444;49.680;18.538;2023-12-07T03:59:35;97219.66264150887;;;0.418113869568333
77385;BMP280;66444;49.680;18.538;2023-12-07T04:04:44;97226.29731018947;;;0.29064427614212035
77385;BMP280;66444;49.680;18.538;2023-12-07T04:09:53;97239.47486038583;;;0.1376759618986398
77385;BMP280;66444;49.680;18.538;2023-12-07T04:15:01;97232.71668863586;;;0.07648716936819255
77385;BMP280;66444;49.680;18.538;2023-12-07T04:20:14;97237.97563920236;;;0.025495868641883135
77385;BMP280;66444;49.680;18.538;2023-12-07T04:25:23;97236.41341402;;;0.015297538647428156
77385;BMP280;66444;49.680;18.538;2023-12-07T04:30:32;97237.43445807231;;;0.056090718926861884
77385;BMP280;66444;49.680;18.538;2023-12-07T04:35:40;97248.9711618435;;;-0.005099191190674901
77385;BMP280;66444;49.680;18.538;2023-12-07T04:40:49;97258.94124417948;;;-0.0764884790405631
77385;BMP280;66444;49.680;18.538;2023-12-07T04:45:58;97274.62171147304;;;-0.0764884790405631
77385;BMP280;66444;49.680;18.538;2023-12-07T04:51:07;97278.52933959478;;;-0.05099217384122312
77385;BMP280;66444;49.680;18.538;2023-12-07T04:56:15;97281.65548510983;;;-0.030595234455540778
77385;BMP280;66444;49.680;18.538;2023-12-07T05:01:26;97282.97483144408;;;-0.05609142323955894
77385;BMP280;66444;49.680;18.538;2023-12-07T05:06:32;97287.15154503602;;;-0.045892930263653396
77385;BMP280;66444;49.680;18.538;2023-12-07T05:11:39;97299.21475576052;;;-0.13768020523712038
77385;BMP280;66444;49.680;18.538;2023-12-07T05:16:45;97303.39155445903;;;-0.12748152599669993
77385;BMP280;66444;49.680;18.538;2023-12-07T05:21:51;97304.70875086536;;;-0.15297826775349677
77385;BMP280;66444;49.680;18.538;2023-12-07T05:26:57;97308.63857358608;;;-0.1784751550294459
77385;BMP280;66444;49.680;18.538;2023-12-07T05:32:03;97317.01161115308;;;-0.20907161184586584
77385;BMP280;66444;49.680;18.538;2023-12-07T05:37:09;97319.10922620086;;;-0.22946936613880098
77385;BMP280;66444;49.680;18.538;2023-12-07T05:42:15;97326.68108710439;;;-0.21417104168795048
77385;BMP280;66444;49.680;18.538;2023-12-07T05:47:21;97329.56044865542;;;-0.22946936613880098
77385;BMP280;66444;49.680;18.538;2023-12-07T05:52:27;97330.6089668346;;;-0.23966827820986508
77385;BMP280;66444;49.680;18.538;2023-12-07T05:57:33;97338.97933246497;;;-0.27026515412144364
77385;BMP280;66444;49.680;18.538;2023-12-07T06:02:39;97337.41485133459;;;-0.2804641593247652
77385;BMP280;66444;49.680;18.538;2023-12-07T06:07:45;97345.51828804077;;;-0.29576271078549327
77385;BMP280;66444;49.680;18.538;2023-12-07T06:12:51;97353.34162250267;;;-0.2447677429765463
77385;BMP280;66444;49.680;18.538;2023-12-07T06:17:57;97362.47914267951;;;-0.21927047735080124
77385;BMP280;66444;49.680;18.538;2023-12-07T06:23:04;97369.26981569933;;;-0.20907161184586584
77385;BMP280;66444;49.680;18.538;2023-12-07T06:28:10;97369.26981569933;;;-0.20907161184586584
77385;BMP280;66444;49.680;18.538;2023-12-07T06:33:15;97371.89625751067;;;-0.26006617220118644
77385;BMP280;66444;49.680;18.538;2023-12-07T06:38:21;97376.06068870588;;;-0.19887276962399483
77385;BMP280;66444;49.680;18.538;2023-12-07T06:43:27;97379.72156965856;;;-0.20907161184586584
77385;BMP280;66444;49.680;18.538;2023-12-07T06:48:33;97383.88583627132;;;-0.14787890776060522
77385;BMP280;66444;49.680;18.538;2023-12-07T06:53:39;97375.74739986363;;;-0.030595234455540778
77385;BMP280;66444;49.680;18.538;2023-12-07T06:58:45;97381.7572200317;;;-0.02549601416103542
77385;BMP280;66444;49.680;18.538;2023-12-07T07:03:51;97385.91822438504;;;0.03569417535327375
77385;BMP280;66444;49.680;18.538;2023-12-07T07:08:56;97398.72168875516;;;0.050991591764613986
77385;BMP280;66444;49.680;18.538;2023-12-07T07:14:03;97401.06915245336;;;0.0662889557890594
77385;BMP280;66444;49.680;18.538;2023-12-07T07:19:08;97401.06915245336;;;0.0662889557890594
77385;BMP280;66444;49.680;18.538;2023-12-07T07:24:16;97409.17802013658;;;0.050991591764613986
77385;BMP280;66444;49.680;18.538;2023-12-07T07:29:21;97408.89418665323;;;0.11727979085408151
77385;BMP280;66444;49.680;18.538;2023-12-07T07:34:27;97407.57782719289;;;0.14277499010786415
77385;BMP280;66444;49.680;18.538;2023-12-07T07:39:33;97420.63218533037;;;0.19376495205797256
77385;BMP280;66444;49.680;18.538;2023-12-07T07:44:39;97425.86161334916;;;0.19376495205797256
77385;BMP280;66444;49.680;18.538;2023-12-07T07:49:45;97425.57554444457;;;0.26005103238858285
77385;BMP280;66444;49.680;18.538;2023-12-07T07:54:51;97434.4703177166;;;0.24985323790460826
77385;BMP280;66444;49.680;18.538;2023-12-07T07:59:57;97432.86571699819;;;0.34163255007006227
77385;BMP280;66444;49.680;18.538;2023-12-07T08:05:04;97426.02558539779;;;0.4334099763073027
77385;BMP280;66444;49.680;18.538;2023-12-07T08:10:10;97427.59037291784;;;0.4436073516961187
77385;BMP280;66444;49.680;18.538;2023-12-07T08:15:16;97433.5561642244;;;0.5506783875636756
77385;BMP280;66444;49.680;18.538;2023-12-07T08:20:22;97433.7170290196;;;0.7393211098387837
77385;BMP280;66444;49.680;18.538;2023-12-07T08:25:28;97445.17942728878;;;0.8310903637204319
77385;BMP280;66444;49.680;18.538;2023-12-07T08:30:33;97453.48118584765;;;0.9534464352298528
77385;BMP280;66444;49.680;18.538;2023-12-07T08:35:39;97465.51778268901;;;0.9636426231823861
77385;BMP280;66444;49.680;18.538;2023-12-07T08:40:45;97468.76455342473;;;0.7801076777279377
77385;BMP280;66444;49.680;18.538;2023-12-07T08:45:51;97472.1367303065;;;0.8361886003054678
77385;BMP280;66444;49.680;18.538;2023-12-07T08:50:57;97484.7116021608;;;0.8157956190407276
77385;BMP280;66444;49.680;18.538;2023-12-07T08:56:03;97482.06674539516;;;0.8667778975795954
77385;BMP280;66444;49.680;18.538;2023-12-07T09:01:10;97479.66138540699;;;0.9534464352298528
77385;BMP280;66444;49.680;18.538;2023-12-07T09:06:16;97488.9870920343;;;1.1165826485026629
77385;BMP280;66444;49.680;18.538;2023-12-07T09:11:22;97484.93638075516;;;1.2950060569215567
77385;BMP280;66444;49.680;18.538;2023-12-07T09:16:28;97479.1328535559;;;1.667123363306746
77385;BMP280;66444;49.680;18.538;2023-12-07T09:21:34;97486.3987506437;;;1.748679176485166
77385;BMP280;66444;49.680;18.538;2023-12-07T09:26:40;97483.77729230326;;;1.748679176485166
77385;BMP280;66444;49.680;18.538;2023-12-07T09:31:46;97484.6053895286;;;1.7028042149264366
77385;BMP280;66444;49.680;18.538;2023-12-07T09:37:05;97478.02893769366;;;1.7282903628889472
77385;BMP280;66444;49.680;18.538;2023-12-07T09:42:11;97480.04986785405;;;1.8098450584802777
77385;BMP280;66444;49.680;18.538;2023-12-07T09:47:17;97480.04986785405;;;1.8098450584802777
77385;BMP280;66444;49.680;18.538;2023-12-07T09:52:24;97478.4865393805;;;1.7996508030220866
77385;BMP280;66444;49.680;18.538;2023-12-07T09:57:30;97485.7983614289;;;1.8302334995474667
77385;BMP280;66444;49.680;18.538;2023-12-07T10:02:37;97475.15819586579;;;1.9831438389606775
77385;BMP280;66444;49.680;18.538;2023-12-07T10:07:43;97481.74813906297;;;2.1972095131408422
77385;BMP280;66444;49.680;18.538;2023-12-07T10:12:51;97475.9421749316;;;2.2277894855476914
77385;BMP280;66444;49.680;18.538;2023-12-07T10:17:58;97479.62658442982;;;2.2175961846951395
77385;BMP280;66444;49.680;18.538;2023-12-07T10:23:10;97472.91973474817;;;2.345010771881789
77385;BMP280;66444;49.680;18.538;2023-12-07T10:28:17;97468.76347969635;;;2.5233850821387023
77385;BMP280;66444;49.680;18.538;2023-12-07T10:33:25;97469.4123899626;;;2.6304062456823885
77385;BMP280;66444;49.680;18.538;2023-12-07T10:38:31;97469.62766769745;;;2.6660793964285405
77385;BMP280;66444;49.680;18.538;2023-12-07T10:43:42;97470.48364801142;;;2.8087691472377627
77385;BMP280;66444;49.680;18.538;2023-12-07T10:48:55;97469.27437689723;;;2.9208793214522304
77385;BMP280;66444;49.680;18.538;2023-12-07T10:54:05;97472.46987060385;;;2.8903040987905113
77385;BMP280;66444;49.680;18.538;2023-12-07T10:59:13;97469.98673620922;;;2.788385176518932
77385;BMP280;66444;49.680;18.538;2023-12-07T11:04:21;97472.18484440735;;;2.7170405455864968
77385;BMP280;66444;49.680;18.538;2023-12-07T11:09:28;97473.74646377949;;;2.7272327055688947
77385;BMP280;66444;49.680;18.538;2023-12-07T11:14:41;97477.22109641464;;;2.681367802293971
77385;BMP280;66444;49.680;18.538;2023-12-07T11:19:47;97478.00197961344;;;2.6864639259409158
77385;BMP280;66444;49.680;18.538;2023-12-07T11:24:54;97476.08890993638;;;2.7425209018867465
77385;BMP280;66444;49.680;18.538;2023-12-07T11:30:03;97477.65055210459;;;2.7527130036614835
77385;BMP280;66444;49.680;18.538;2023-12-07T11:35:12;97479.99303244846;;;2.768001112667844
77385;BMP280;66444;49.680;18.538;2023-12-07T11:40:18;97475.30809227118;;;2.7374248422682284
77385;BMP280;66444;49.680;18.538;2023-12-07T11:45:41;97473.74646377949;;;2.7272327055688947
77385;BMP280;66444;49.680;18.538;2023-12-07T11:50:53;97478.00197961344;;;2.6864639259409158
77385;BMP280;66444;49.680;18.538;2023-12-07T11:56:01;97471.3230597195;;;2.574347861111164
77385;BMP280;66444;49.680;18.538;2023-12-07T12:01:09;97477.07186916805;;;2.5947328097186984
77385;BMP280;66444;49.680;18.538;2023-12-07T12:06:15;97481.04206663402;;;2.5692516094073654
77385;BMP280;66444;49.680;18.538;2023-12-07T12:11:21;97479.48004513302;;;2.5590590885374693
77385;BMP280;66444;49.680;18.538;2023-12-07T12:16:27;97474.01304193136;;;2.5233850821387023
77385;BMP280;66444;49.680;18.538;2023-12-07T12:21:33;97473.01438487548;;;2.482614439865574
77385;BMP280;66444;49.680;18.538;2023-12-07T12:26:41;97473.7954054619;;;2.4877107905223967
77385;BMP280;66444;49.680;18.538;2023-12-07T12:31:48;97470.6713368574;;;2.467325352970511
77385;BMP280;66444;49.680;18.538;2023-12-07T12:36:55;97469.73416822594;;;2.3755897314753383
77385;BMP280;66444;49.680;18.538;2023-12-07T12:42:02;97475.70184600951;;;2.431650613155216
77385;BMP280;66444;49.680;18.538;2023-12-07T12:47:09;97478.2636036761;;;2.482614439865574
77385;BMP280;66444;49.680;18.538;2023-12-07T12:52:16;97479.76190532964;;;2.54377026357688
77385;BMP280;66444;49.680;18.538;2023-12-07T12:57:23;97486.63729050977;;;2.502999807568267
77385;BMP280;66444;49.680;18.538;2023-12-07T13:02:30;97487.26142951545;;;2.4214577779639512
77385;BMP280;66444;49.680;18.538;2023-12-07T13:07:39;97483.35547910932;;;2.3959755881223828
77385;BMP280;66444;49.680;18.538;2023-12-07T13:12:45;97487.88259056998;;;2.339914258243516
77385;BMP280;66444;49.680;18.538;2023-12-07T13:17:51;97487.32198692311;;;2.370493252761662
77385;BMP280;66444;49.680;18.538;2023-12-07T13:23:04;97489.44513987901;;;2.3501072796992957
77385;BMP280;66444;49.680;18.538;2023-12-07T13:28:10;97495.19440917228;;;2.370493252761662
77385;BMP280;66444;49.680;18.538;2023-12-07T13:33:17;97499.82213383882;;;2.4520362136885523
77385;BMP280;66444;49.680;18.538;2023-12-07T13:38:23;97497.0372243838;;;2.3653967682272197
77385;BMP280;66444;49.680;18.538;2023-12-07T13:43:30;97506.53036442715;;;2.324624682404101
77385;BMP280;66444;49.680;18.538;2023-12-07T13:48:37;97503.4612667435;;;2.253272635815665
77385;BMP280;66444;49.680;18.538;2023-12-07T13:53:43;97511.71915938106;;;2.136048939684406
77385;BMP280;66444;49.680;18.538;2023-12-07T13:58:50;97516.79075305937;;;2.0494033591356127
77385;BMP280;66444;49.680;18.538;2023-12-07T14:04:01;97522.45800649261;;;1.8812041947618128
77385;BMP280;66444;49.680;18.538;2023-12-07T14:09:12;97527.24115871814;;;1.8098450584802777
77385;BMP280;66444;49.680;18.538;2023-12-07T14:14:18;97533.0781086663;;;1.7282903628889472
77385;BMP280;66444;49.680;18.538;2023-12-07T14:19:25;97539.92681226076;;;1.687512456299737
77385;BMP280;66444;49.680;18.538;2023-12-07T14:24:31;97545.71756710602;;;1.6569287818856537
77385;BMP280;66444;49.680;18.538;2023-12-07T14:29:37;97548.61258254154;;;1.6416368660982699
77385;BMP280;66444;49.680;18.538;2023-12-07T14:34:44;97562.02845487511;;;1.5753712923265994
77385;BMP280;66444;49.680;18.538;2023-12-07T14:39:50;97560.73626069752;;;1.5498842712491752
77385;BMP280;66444;49.680;18.538;2023-12-07T14:44:57;97551.85512923944;;;1.5091047348454594
77385;BMP280;66444;49.680;18.538;2023-12-07T14:50:03;97556.3135168327;;;1.5040072666015476
77385;BMP280;66444;49.680;18.538;2023-12-07T14:55:11;97552.63767876023;;;1.5142021972686053
77385;BMP280;66444;49.680;18.538;2023-12-07T15:00:17;97559.9891925646;;;1.4938123126514256
77385;BMP280;66444;49.680;18.538;2023-12-07T15:05:24;97561.8269695535;;;1.4887148269452155
77385;BMP280;66444;49.680;18.538;2023-12-07T15:10:30;97552.6731508323;;;1.4632273111026735
77385;BMP280;66444;49.680;18.538;2023-12-07T15:15:37;97556.3135168327;;;1.5040072666015476
77385;BMP280;66444;49.680;18.538;2023-12-07T15:20:43;97554.71237987143;;;1.544786849571392
77385;BMP280;66444;49.680;18.538;2023-12-07T15:25:49;97559.95367221085;;;1.544786849571392
77385;BMP280;66444;49.680;18.538;2023-12-07T15:30:56;97563.11973894379;;;1.5142021972686053
77385;BMP280;66444;49.680;18.538;2023-12-07T15:36:03;97557.36876453903;;;1.4938123126514256
77385;BMP280;66444;49.680;18.538;2023-12-07T15:41:10;97567.34005701546;;;1.4734223349019886
77385;BMP280;66444;49.680;18.538;2023-12-07T15:46:19;97568.39493936191;;;1.4632273111026735
77385;BMP280;66444;49.680;18.538;2023-12-07T15:51:32;97569.17767166879;;;1.468324825912714
77385;BMP280;66444;49.680;18.538;2023-12-07T15:56:39;97570.50446746373;;;1.44283719365485
77385;BMP280;66444;49.680;18.538;2023-12-07T16:01:45;97577.31054032587;;;1.453032264020294
77385;BMP280;66444;49.680;18.538;2023-12-07T16:06:53;97574.41833207695;;;1.468324825912714
77385;BMP280;66444;49.680;18.538;2023-12-07T16:11:59;97578.33225505955;;;1.4938123126514256
77385;BMP280;66444;49.680;18.538;2023-12-07T16:17:06;97576.2223674664;;;1.5142021972686053
77385;BMP280;66444;49.680;18.538;2023-12-07T16:22:13;97578.33225505955;;;1.4938123126514256
77385;BMP280;66444;49.680;18.538;2023-12-07T16:27:19;97585.13882747937;;;1.5040072666015476
77385;BMP280;66444;49.680;18.538;2023-12-07T16:32:25;97588.27020769147;;;1.5243971046525986
77385;BMP280;66444;49.680;18.538;2023-12-07T16:37:32;97580.91893632145;;;1.544786849571392
77385;BMP280;66444;49.680;18.538;2023-12-07T16:42:39;97584.56031124106;;;1.5855660600122063
77385;BMP280;66444;49.680;18.538;2023-12-07T16:47:47;97582.68649888884;;;1.6416368660982699
77385;BMP280;66444;49.680;18.538;2023-12-07T16:52:53;97582.4134552673;;;1.6569287818856537
77385;BMP280;66444;49.680;18.538;2023-12-07T16:57:59;97590.3123258215;;;1.6059555255342275
77385;BMP280;66444;49.680;18.538;2023-12-07T17:03:06;97575.36939486863;;;1.6110528773628174
77385;BMP280;66444;49.680;18.538;2023-12-07T17:08:13;97590.24041011719;;;1.7079014561604708
77385;BMP280;66444;49.680;18.538;2023-12-07T17:13:19;97590.4763487431;;;1.7435819818172604
77385;BMP280;66444;49.680;18.538;2023-12-07T17:18:26;97598.88733073662;;;1.712998691573739
77385;BMP280;66444;49.680;18.538;2023-12-07T17:23:32;97602.32726291669;;;1.667123363306746
77385;BMP280;66444;49.680;18.538;2023-12-07T17:28:39;97604.71056588227;;;1.6314422264695168
77385;BMP280;66444;49.680;18.538;2023-12-07T17:33:45;97602.36188036499;;;1.6161502233706415
77385;BMP280;66444;49.680;18.538;2023-12-07T17:38:51;97608.14802366275;;;1.5855660600122063
77385;BMP280;66444;49.680;18.538;2023-12-07T17:43:58;97614.98781384574;;;1.544786849571392
77385;BMP280;66444;49.680;18.538;2023-12-07T17:49:04;97617.09680126482;;;1.5243971046525986
77385;BMP280;66444;49.680;18.538;2023-12-07T17:54:11;97606.10286977439;;;1.5040072666015476
77385;BMP280;66444;49.680;18.538;2023-12-07T17:59:19;97616.58494776608;;;1.5040072666015476
77385;BMP280;66444;49.680;18.538;2023-12-07T18:04:25;97617.12709859063;;;1.4734223349019886
77385;BMP280;66444;49.680;18.538;2023-12-07T18:09:31;97602.45910698091;;;1.4632273111026735
77385;BMP280;66444;49.680;18.538;2023-12-07T18:14:38;97600.35037929972;;;1.4836173354182391
77385;BMP280;66444;49.680;18.538;2023-12-07T18:19:44;97592.42286072602;;;1.5855660600122063
77385;BMP280;66444;49.680;18.538;2023-12-07T18:24:50;97598.20879723386;;;1.5549816871061921
77385;BMP280;66444;49.680;18.538;2023-12-07T18:29:57;97597.18669626911;;;1.5142021972686053
77385;BMP280;66444;49.680;18.538;2023-12-07T18:35:03;97600.31845744963;;;1.5345919887535273
77385;BMP280;66444;49.680;18.538;2023-12-07T18:40:13;97610.56083837524;;;1.4989097925368697
77385;BMP280;66444;49.680;18.538;2023-12-07T18:45:19;97611.1032201758;;;1.468324825912714
77385;BMP280;66444;49.680;18.538;2023-12-07T18:50:26;97606.58209176775;;;1.5753712923265994
77385;BMP280;66444;49.680;18.538;2023-12-07T18:55:32;97599.74088755962;;;1.6161502233706415
77385;BMP280;66444;49.680;18.538;2023-12-07T19:00:39;97603.38274274995;;;1.6569287818856537
77385;BMP280;66444;49.680;18.538;2023-12-07T19:05:45;97598.68559455869;;;1.6263448979239912
77385;BMP280;66444;49.680;18.538;2023-12-07T19:10:52;97593.68085564865;;;1.6620260755065828
77385;BMP280;66444;49.680;18.538;2023-12-07T19:15:58;97604.40303892619;;;1.697706967871636
77385;BMP280;66444;49.680;18.538;2023-12-07T19:21:05;97599.63306285178;;;1.7690678969491274
77385;BMP280;66444;49.680;18.538;2023-12-07T19:26:12;97598.067597491;;;1.7588735483586788
77385;BMP280;66444;49.680;18.538;2023-12-07T19:31:18;97597.79412788563;;;1.7741650625132024
77385;BMP280;66444;49.680;18.538;2023-12-07T19:36:25;97601.19853750427;;;1.7792622222565115
77385;BMP280;66444;49.680;18.538;2023-12-07T19:41:31;97606.95130141532;;;1.7996508030220866
77385;BMP280;66444;49.680;18.538;2023-12-07T19:46:38;97597.75571220029;;;1.8251363980118185
77385;BMP280;66444;49.680;18.538;2023-12-07T19:51:45;97601.66909097538;;;1.850621847482398
77385;BMP280;66444;49.680;18.538;2023-12-07T19:56:53;97611.6095036517;;;1.8812041947618128
77385;BMP280;66444;49.680;18.538;2023-12-07T20:01:59;97611.56992890316;;;1.9321743078995497
77385;BMP280;66444;49.680;18.538;2023-12-07T20:07:06;97606.05074652079;;;1.947465228335932
77385;BMP280;66444;49.680;18.538;2023-12-07T20:12:12;97617.32318573687;;;1.9525621901731938
77385;BMP280;66444;49.680;18.538;2023-12-07T20:17:19;97621.51114817873;;;1.9627560963854194
77385;BMP280;66444;49.680;18.538;2023-12-07T20:22:26;97623.81877902088;;;2.0290159192401918
77385;BMP280;66444;49.680;18.538;2023-12-07T20:27:33;97615.67552654946;;;2.0443065078929066
77385;BMP280;66444;49.680;18.538;2023-12-07T20:32:40;97621.93666979785;;;2.0850811548531056
77385;BMP280;66444;49.680;18.538;2023-12-07T20:37:46;97623.50197871754;;;2.0952747583854943
77385;BMP280;66444;49.680;18.538;2023-12-07T20:42:52;97619.8210600804;;;2.105468338634819
77385;BMP280;66444;49.680;18.538;2023-12-07T20:47:59;97622.95154290616;;;2.1258554292842744
77385;BMP280;66444;49.680;18.538;2023-12-07T20:53:06;97626.08206267112;;;2.146242426801473
77385;BMP280;66444;49.680;18.538;2023-12-07T20:58:12;97621.8493181783;;;2.1870161424390973
77385;BMP280;66444;49.680;18.538;2023-12-07T21:03:22;97622.35602788725;;;2.2074028605595233
77385;BMP280;66444;49.680;18.538;2023-12-07T21:08:32;97628.66148086147;;;2.1972095131408422
77385;BMP280;66444;49.680;18.538;2023-12-07T21:13:42;97620.51499937079;;;2.2124995255377145
77385;BMP280;66444;49.680;18.538;2023-12-07T21:18:52;97621.29752915571;;;2.2175961846951395
77385;BMP280;66444;49.680;18.538;2023-12-07T21:24:02;97620.28419797469;;;2.1768227484542875
77385;BMP280;66444;49.680;18.538;2023-12-07T21:29:12;97617.6153095538;;;2.2277894855476914
77385;BMP280;66444;49.680;18.538;2023-12-07T21:34:22;97596.57793170634;;;2.278755640564486
77385;BMP280;66444;49.680;18.538;2023-12-07T21:39:32;97598.64758192407;;;2.309335054177791
77385;BMP280;66444;49.680;18.538;2023-12-07T21:44:42;97602.88480610137;;;2.268562456127256
77385;BMP280;66444;49.680;18.538;2023-12-07T21:49:52;97586.58737778741;;;2.2991419395897537
77385;BMP280;66444;49.680;18.538;2023-12-07T21:55:02;97566.6038401847;;;2.339914258243516
77385;BMP280;66444;49.680;18.538;2023-12-07T22:00:16;97561.3556903766;;;2.339914258243516
77385;BMP280;66444;49.680;18.538;2023-12-07T22:05:26;97566.27194114603;;;2.4061684815213082
77385;BMP280;66444;49.680;18.538;2023-12-07T22:10:36;97556.55631279132;;;2.4112649194896223